Destin, FL (32540)

11:40 AM CDT on March 30, 2015 (GMT -0500)
Destin Water Users | | Change Station
CLOSE
Current Station
Personal Weather Station
Location: Destin, FL
Elevation: 26 ft
Nearby Weather Stations

Elev 26 ft 30.39 °N, 86.48 °W | Updated 0 second ago

Scattered Clouds
Scattered Clouds
73.4 °F
Feels Like 75 °F
N
5.6
Wind Variable Wind from SSW
Gusts 10.0 mph

Today
High -- | Low -- °F
--% Chance of Precip.
Yesterday
High -- | Low -- °F
Precip. -- in
6:37 AM 7:03 PM
Waxing Gibbous, 80% visible
Pressure 30.27 in
Visibility 10.0 miles
Clouds Few 3100 ft
Scattered Clouds 4200 ft
Heat Index 75 °F
Dew Point 63 °F
Humidity 71%
Rainfall 0.00 in
Snow Depth Not available.
UV 7 out of 12
Pollen 9.80 out of 12
Air Quality Not available.
Flu Activity Not available.
METAR KDTS 301553Z AUTO 24007G16KT 10SM FEW031 SCT042 23/17 A3027 RMK AO2 SLP249 T02280172 TSNO

More Conditions Fewer Conditions

Pressure 30.27 in
Visibility 10.0 miles
Clouds Few 3100 ft
Scattered Clouds 4200 ft
Heat Index 75 °F
Dew Point 63 °F
Humidity 71%
Rainfall 0.00 in
Snow Depth Not available.
UV 7 out of 12
Pollen 9.80 out of 12
Air Quality Not available.
Flu Activity Not available.
METAR KDTS 301553Z AUTO 24007G16KT 10SM FEW031 SCT042 23/17 A3027 RMK AO2 SLP249 T02280172 TSNO

More Conditions Fewer Conditions

10-Day Weather Forecast

Almanac

Astronomy

Mar. 30, 2015 Rise Set
Actual Time
Civil Twilight
Nautical Twilight
Astronomical Twilight
Moon
Length of Visible Light
Length of Day
Tomorrow will be .
, % of the Moon is Illuminated

Today's Extremes

State Highs State Lows

Community

WunderPhotos

Upload Photos

1,809,536 photos uploaded!

WunderBlogs® & News

Nearby

Air Quality

  Air Quality AQ Index Pollutant
Not available.

Snow Depth

Station Depth Elevation

Earthquake Activity

City Distance Mag. Time & Date
Minimum magnitude displayed is 2.5.

Coastal Water Temperatures

Place Temperature

Stations

Nearby Weather Stations

Station Location Temp. Windchill Dew Point Humidity Wind Precip. Elev Updated Type